Time;durP1;ratioP1;P1;durP2;ratioP2;P2;SDS_P1;SDS_P2;PMS_P1;PMS_P2;Temp;Humidity;BMP_temperature;BMP_pressure;BME280_temperature;BME280_humidity;BME280_pressure;Samples;Min_cycle;Max_cycle;Signal;HPM_P1;HPM_P2
2022/09/23 00:00:42;;;;;;;2.50;2.30;;;;;;;7.81;100.00;100485.81;5013740;28;20193;-74
2022/09/23 00:03:09;;;;;;;2.87;2.47;;;;;;;7.77;100.00;100490.13;5014092;28;20275;-74
2022/09/23 00:05:36;;;;;;;3.13;2.83;;;;;;;7.72;100.00;100487.47;5016056;28;20221;-74
2022/09/23 00:08:02;;;;;;;2.93;2.73;;;;;;;7.68;100.00;100488.34;5013882;28;20195;-74
2022/09/23 00:10:30;;;;;;;3.47;3.10;;;;;;;7.64;100.00;100491.75;5011632;28;20191;-74
2022/09/23 00:12:56;;;;;;;3.10;2.80;;;;;;;7.60;100.00;100488.28;5012881;28;20768;-74
2022/09/23 00:15:24;;;;;;;4.57;2.93;;;;;;;7.57;100.00;100493.41;5014303;28;20210;-74
2022/09/23 00:17:52;;;;;;;3.40;3.00;;;;;;;7.53;100.00;100489.09;5013124;28;20281;-74
2022/09/23 00:20:18;;;;;;;4.17;3.10;;;;;;;7.48;100.00;100486.47;5016149;28;20193;-74
2022/09/23 00:22:46;;;;;;;3.40;3.10;;;;;;;7.47;100.00;100494.22;5016654;28;20274;-74
2022/09/23 00:25:11;;;;;;;4.90;3.07;;;;;;;7.44;100.00;100497.59;5007488;28;20279;-73
2022/09/23 00:27:38;;;;;;;2.97;2.77;;;;;;;7.43;100.00;100497.59;5007679;28;20681;-74
2022/09/23 00:30:06;;;;;;;3.43;2.90;;;;;;;7.42;100.00;100493.31;5014256;28;20233;-74
2022/09/23 00:32:32;;;;;;;2.80;2.47;;;;;;;7.40;100.00;100495.88;5011657;28;20215;-74
2022/09/23 00:34:57;;;;;;;3.97;3.10;;;;;;;7.41;100.00;100497.56;5013576;28;20193;-74
2022/09/23 00:37:23;;;;;;;3.47;2.93;;;;;;;7.41;100.00;100494.16;5015071;28;20190;-74
2022/09/23 00:39:48;;;;;;;5.17;3.40;;;;;;;7.40;100.00;100487.28;5015786;28;20191;-74
2022/09/23 00:42:17;;;;;;;3.23;2.93;;;;;;;7.41;100.00;100487.28;5018556;28;20781;-74
2022/09/23 00:44:47;;;;;;;3.67;3.37;;;;;;;7.42;100.00;100489.00;5011081;28;20280;-74
2022/09/23 00:47:22;;;;;;;3.63;3.33;;;;;;;7.43;100.00;100489.88;5012087;28;20772;-74
2022/09/23 00:50:35;;;;;;;5.13;3.33;;;;;;;7.42;100.00;100489.00;5013093;28;20669;-74
2022/09/23 00:53:04;;;;;;;4.87;3.17;;;;;;;7.43;100.00;100484.72;5003946;28;20218;-74
2022/09/23 00:55:38;;;;;;;3.83;3.13;;;;;;;7.42;100.00;100489.00;5010223;28;20207;-74
2022/09/23 00:58:09;;;;;;;4.13;2.97;;;;;;;7.42;100.00;100483.00;5022897;28;20200;-73
2022/09/23 01:00:35;;;;;;;3.73;3.30;;;;;;;7.42;100.00;100490.72;5013121;28;20206;-74
2022/09/23 01:03:03;;;;;;;5.37;3.30;;;;;;;7.40;100.00;100485.59;5012813;28;20190;-74
2022/09/23 01:05:30;;;;;;;4.03;2.80;;;;;;;7.39;100.00;100488.13;5011545;28;20242;-74
2022/09/23 01:07:56;;;;;;;2.97;2.77;;;;;;;7.36;100.00;100480.38;5012967;28;20191;-74
2022/09/23 01:10:23;;;;;;;2.63;2.43;;;;;;;7.35;100.00;100476.06;5018598;28;20672;-74
2022/09/23 01:12:54;;;;;;;3.13;2.77;;;;;;;7.34;100.00;100482.94;5009920;28;20237;-74
2022/09/23 01:15:34;;;;;;;3.43;2.50;;;;;;;7.32;100.00;100467.50;5010342;28;20683;-74
2022/09/23 01:18:18;;;;;;;2.93;2.70;;;;;;;7.29;100.00;100472.63;5013338;28;20208;-74
2022/09/23 01:20:58;;;;;;;2.87;2.60;;;;;;;7.25;100.00;100481.16;5010580;28;20202;-74
2022/09/23 01:23:42;;;;;;;3.03;2.80;;;;;;;7.21;100.00;100476.00;5010309;28;20215;-74
2022/09/23 01:26:35;;;;;;;3.27;2.80;;;;;;;7.14;100.00;100468.19;5010754;28;20209;-74
2022/09/23 01:29:29;;;;;;;3.30;3.00;;;;;;;7.08;100.00;100478.47;5022754;28;20283;-74
2022/09/23 01:32:06;;;;;;;3.10;2.80;;;;;;;7.03;100.00;100476.72;5009855;28;20198;-74
2022/09/23 01:34:34;;;;;;;3.43;3.07;;;;;;;7.01;100.00;100479.25;5010840;28;20671;-74
2022/09/23 01:37:12;;;;;;;3.70;3.40;;;;;;;6.96;100.00;100474.06;5013814;28;20349;-74
2022/09/23 01:39:49;;;;;;;3.90;3.60;;;;;;;6.92;100.00;100471.47;5008547;28;20264;-74
2022/09/23 01:42:28;;;;;;;3.40;3.03;;;;;;;6.89;100.00;100464.56;5011560;28;20583;-74
2022/09/23 01:45:29;;;;;;;4.47;3.00;;;;;;;6.88;100.00;100470.56;5028249;28;20738;-73
2022/09/23 01:48:12;;;;;;;4.30;3.27;;;;;;;6.88;100.00;100465.44;5018847;28;20366;-74
2022/09/23 01:50:55;;;;;;;3.87;3.57;;;;;;;6.86;100.00;100462.81;5014382;28;20192;-74
2022/09/23 01:53:28;;;;;;;3.67;3.33;;;;;;;6.89;100.00;100467.13;5016610;28;20544;-74
2022/09/23 01:55:59;;;;;;;3.43;3.13;;;;;;;6.88;100.00;100473.16;5016035;28;20206;-74
2022/09/23 01:58:32;;;;;;;3.77;3.40;;;;;;;6.86;100.00;100467.13;5010326;28;20192;-74
2022/09/23 02:01:05;;;;;;;3.83;3.40;;;;;;;6.84;100.00;100467.09;5007178;28;20196;-74
2022/09/23 02:03:44;;;;;;;5.03;3.60;;;;;;;6.83;100.00;100469.66;5009877;28;20191;-74
2022/09/23 02:06:27;;;;;;;3.93;3.53;;;;;;;6.77;100.00;100467.91;5019800;28;20626;-74
2022/09/23 02:08:59;;;;;;;4.10;3.80;;;;;;;6.73;100.00;100465.28;5014686;28;20193;-74
2022/09/23 02:11:25;;;;;;;3.70;3.40;;;;;;;6.69;100.00;100472.97;5010079;28;20775;-74
2022/09/23 02:14:14;;;;;;;3.67;3.37;;;;;;;6.64;100.00;100472.06;5010155;28;20652;-73
2022/09/23 02:16:46;;;;;;;4.10;3.70;;;;;;;6.59;100.00;100460.84;5015515;28;20214;-74
2022/09/23 02:19:17;;;;;;;3.60;3.30;;;;;;;6.58;100.00;100466.81;5020254;28;20193;-74
2022/09/23 02:21:54;;;;;;;3.70;3.23;;;;;;;6.57;100.00;100462.56;5016077;28;20185;-74
2022/09/23 02:24:27;;;;;;;4.00;3.60;;;;;;;6.55;100.00;100469.41;5021845;28;20461;-74
2022/09/23 02:26:58;;;;;;;4.10;3.70;;;;;;;6.51;100.00;100463.34;5014869;28;20210;-74
2022/09/23 02:29:57;;;;;;;4.43;3.27;;;;;;;6.48;100.00;100465.91;5012883;28;20213;-74
2022/09/23 02:32:30;;;;;;;3.73;3.30;;;;;;;6.45;100.00;100465.84;5022593;28;20204;-74
2022/09/23 02:35:24;;;;;;;3.90;3.60;;;;;;;6.43;100.00;100466.69;5016879;28;20199;-74
2022/09/23 02:38:00;;;;;;;3.60;3.27;;;;;;;6.40;100.00;100467.50;5010031;28;20207;-74
2022/09/23 02:40:28;;;;;;;3.93;3.63;;;;;;;6.37;100.00;100468.34;5017042;28;20289;-73
2022/09/23 02:43:20;;;;;;;4.57;3.80;;;;;;;6.36;100.00;100465.75;5014300;28;20220;-74
2022/09/23 02:45:46;;;;;;;3.73;3.43;;;;;;;6.34;100.00;100460.59;5014410;28;20225;-74
2022/09/23 02:48:17;;;;;;;5.00;3.40;;;;;;;6.35;100.00;100453.75;5016854;28;20743;-73
2022/09/23 02:50:43;;;;;;;3.17;2.97;;;;;;;6.37;100.00;100452.03;5012611;28;20203;-74
2022/09/23 02:53:09;;;;;;;3.67;3.37;;;;;;;6.40;100.00;100441.78;5019111;28;20276;-74
2022/09/23 02:55:35;;;;;;;4.93;3.53;;;;;;;6.44;100.00;100434.97;5013375;28;20214;-73
2022/09/23 02:58:02;;;;;;;3.50;3.27;;;;;;;6.46;100.00;100433.28;5010353;28;20188;-74
2022/09/23 03:01:09;;;;;;;3.97;3.60;;;;;;;6.45;100.00;100437.56;5016094;28;20681;-74
2022/09/23 03:03:42;;;;;;;3.73;3.43;;;;;;;6.43;100.00;100423.00;5006949;28;20206;-74
2022/09/23 03:06:28;;;;;;;3.97;3.67;;;;;;;6.41;100.00;100430.66;5019603;28;20209;-74
2022/09/23 03:09:03;;;;;;;3.33;3.13;;;;;;;6.40;100.00;100429.81;5014120;28;20200;-74
2022/09/23 03:11:28;;;;;;;3.77;3.47;;;;;;;6.38;100.00;100426.38;5018023;28;20228;-74
2022/09/23 03:14:32;;;;;;;4.23;3.90;;;;;;;6.36;100.00;100428.06;5015833;28;20265;-74
2022/09/23 03:17:08;;;;;;;4.90;3.80;;;;;;;6.32;100.00;100434.00;5019646;28;20709;-74
2022/09/23 03:19:43;;;;;;;3.77;3.47;;;;;;;6.29;100.00;100433.13;5011026;28;20599;-74
2022/09/23 03:22:14;;;;;;;4.07;3.77;;;;;;;6.24;100.00;100433.06;5011325;28;20188;-74
2022/09/23 03:24:43;;;;;;;4.80;4.00;;;;;;;6.21;100.00;100431.31;5013832;28;20212;-74
2022/09/23 03:27:15;;;;;;;4.13;3.73;;;;;;;6.17;100.00;100429.56;5019414;28;20308;-74
2022/09/23 03:29:45;;;;;;;4.13;3.83;;;;;;;6.13;100.00;100432.94;5013598;28;20763;-73
2022/09/23 03:32:13;;;;;;;3.50;3.20;;;;;;;6.09;100.00;100432.06;5018436;28;20244;-74
2022/09/23 03:34:42;;;;;;;3.97;3.43;;;;;;;6.06;100.00;100437.16;5018297;28;20287;-75
2022/09/23 03:37:19;;;;;;;3.70;3.40;;;;;;;6.03;100.00;100437.09;5018862;28;20229;-74
2022/09/23 03:39:55;;;;;;;3.50;3.20;;;;;;;6.01;100.00;100436.22;5014529;28;20253;-74
2022/09/23 03:42:23;;;;;;;3.93;3.63;;;;;;;6.01;100.00;100437.94;5014765;28;20708;-75
2022/09/23 03:44:56;;;;;;;4.93;4.40;;;;;;;6.01;100.00;100436.22;5013570;28;20181;-74
2022/09/23 03:47:24;;;;;;;4.60;4.20;;;;;;;6.00;100.00;100429.34;5014672;28;20229;-74
2022/09/23 03:49:50;;;;;;;4.67;4.27;;;;;;;6.00;100.00;100426.78;5015668;28;20196;-74
2022/09/23 03:52:18;;;;;;;5.13;4.57;;;;;;;6.00;100.00;100434.50;5018457;28;20219;-74
2022/09/23 03:54:44;;;;;;;4.73;4.33;;;;;;;5.99;100.00;100430.16;5013437;28;20192;-74
2022/09/23 03:57:10;;;;;;;5.27;4.60;;;;;;;6.01;100.00;100432.81;5019916;28;20211;-74
2022/09/23 03:59:36;;;;;;;4.80;4.40;;;;;;;6.00;100.00;100424.22;5014317;28;20191;-74
2022/09/23 04:02:02;;;;;;;4.60;4.30;;;;;;;6.01;100.00;100433.66;5017180;28;20206;-74
2022/09/23 04:04:28;;;;;;;4.97;4.57;;;;;;;6.04;100.00;100435.41;5013995;28;20186;-74
2022/09/23 04:06:54;;;;;;;5.33;4.93;;;;;;;6.06;100.00;100428.56;5012363;28;20594;-74
2022/09/23 04:09:21;;;;;;;5.67;5.17;;;;;;;6.09;100.00;100431.16;5014663;28;20189;-74
2022/09/23 04:11:49;;;;;;;5.33;4.90;;;;;;;6.13;100.00;100426.94;5011920;28;20284;-74
2022/09/23 04:14:16;;;;;;;5.13;4.70;;;;;;;6.17;100.00;100424.44;5014842;28;20752;-74
2022/09/23 04:16:42;;;;;;;5.13;4.70;;;;;;;6.22;100.00;100424.47;5019359;28;20243;-74
2022/09/23 04:19:11;;;;;;;5.77;5.13;;;;;;;6.30;100.00;100420.28;5015620;28;20228;-74
2022/09/23 04:21:37;;;;;;;6.10;5.43;;;;;;;6.36;100.00;100422.03;5015672;28;20231;-74
2022/09/23 04:24:03;;;;;;;5.53;5.03;;;;;;;6.42;100.00;100421.28;5015469;28;20222;-74
2022/09/23 04:26:29;;;;;;;5.73;5.23;;;;;;;6.47;100.00;100429.88;5010644;28;20261;-74
2022/09/23 04:28:55;;;;;;;7.30;5.53;;;;;;;6.51;100.00;100429.91;5010193;28;20200;-74
2022/09/23 04:31:22;;;;;;;7.33;5.30;;;;;;;6.54;100.00;100423.97;5006689;28;20202;-74
2022/09/23 04:33:48;;;;;;;5.53;4.90;;;;;;;6.58;100.00;100430.84;5016656;28;20602;-74
2022/09/23 04:36:14;;;;;;;7.57;5.77;;;;;;;6.60;100.00;100436.84;5014610;28;20212;-74
2022/09/23 04:38:42;;;;;;;5.50;5.00;;;;;;;6.59;100.00;100435.13;5017601;28;20238;-74
2022/09/23 04:41:08;;;;;;;6.47;5.87;;;;;;;6.55;100.00;100429.09;5015638;28;20227;-73
2022/09/23 04:43:34;;;;;;;5.87;5.33;;;;;;;6.54;100.00;100431.66;5014698;28;20205;-74
2022/09/23 04:46:05;;;;;;;8.17;5.67;;;;;;;6.51;100.00;100434.19;5013033;28;20727;-74
2022/09/23 04:48:31;;;;;;;6.20;5.47;;;;;;;6.45;100.00;100429.88;5016286;28;20284;-74
2022/09/23 04:51:03;;;;;;;6.90;5.37;;;;;;;6.40;100.00;100431.50;5013085;28;20223;-74
2022/09/23 04:53:29;;;;;;;6.07;5.13;;;;;;;6.34;100.00;100437.47;5011866;28;20396;-74
2022/09/23 04:56:03;;;;;;;4.83;4.43;;;;;;;6.29;100.00;100436.53;5016712;28;20311;-74
2022/09/23 04:58:29;;;;;;;5.67;5.13;;;;;;;6.25;100.00;100445.06;5019722;28;20188;-74
2022/09/23 05:00:56;;;;;;;4.83;4.50;;;;;;;6.22;100.00;100433.03;5013711;28;20232;-75
2022/09/23 05:03:22;;;;;;;5.70;5.20;;;;;;;6.23;100.00;100444.19;5011769;28;20226;-75
2022/09/23 05:05:48;;;;;;;4.90;4.60;;;;;;;6.25;100.00;100437.38;5011661;28;20214;-74
2022/09/23 05:08:13;;;;;;;5.17;4.73;;;;;;;6.27;100.00;100433.13;5019102;28;20236;-74
2022/09/23 05:10:38;;;;;;;5.23;4.83;;;;;;;6.29;100.00;100440.81;5016272;28;20205;-75
2022/09/23 05:13:04;;;;;;;4.93;4.53;;;;;;;6.31;100.00;100437.41;5022020;28;20217;-75
2022/09/23 05:15:29;;;;;;;4.80;4.50;;;;;;;6.33;100.00;100435.72;5020256;28;20298;-75
2022/09/23 05:17:58;;;;;;;4.83;4.43;;;;;;;6.36;100.00;100437.47;5015802;28;20211;-75
2022/09/23 05:20:23;;;;;;;5.13;4.73;;;;;;;6.37;100.00;100434.94;5016984;28;20571;-75
2022/09/23 05:22:48;;;;;;;5.63;5.23;;;;;;;6.38;100.00;100441.78;5020679;28;20181;-76
2022/09/23 05:25:14;;;;;;;5.90;5.40;;;;;;;6.40;100.00;100437.53;5018995;28;20185;-76
2022/09/23 05:27:39;;;;;;;6.07;5.57;;;;;;;6.44;100.00;100443.56;5017235;28;20190;-76
2022/09/23 05:30:05;;;;;;;5.10;4.70;;;;;;;6.47;100.00;100446.19;5022375;28;20178;-76
2022/09/23 05:32:30;;;;;;;4.57;4.27;;;;;;;6.52;100.00;100447.06;5024469;28;20208;-76
2022/09/23 05:34:56;;;;;;;4.73;4.33;;;;;;;6.58;100.00;100456.53;5020856;28;20801;-76
2022/09/23 05:37:22;;;;;;;4.60;4.20;;;;;;;6.63;100.00;100443.75;5024605;28;20473;-76
2022/09/23 05:39:47;;;;;;;4.00;3.70;;;;;;;6.68;100.00;100455.81;5014848;28;20227;-75
2022/09/23 05:42:12;;;;;;;4.23;3.80;;;;;;;6.75;100.00;100446.44;5009548;28;20369;-75
2022/09/23 05:44:38;;;;;;;4.10;3.80;;;;;;;6.83;100.00;100455.06;5015315;28;20193;-74
2022/09/23 05:47:03;;;;;;;4.30;4.00;;;;;;;6.95;100.00;100456.91;5017646;28;20206;-75
2022/09/23 05:49:29;;;;;;;4.00;3.80;;;;;;;7.08;100.00;100450.16;5014195;28;20197;-75
2022/09/23 05:51:55;;;;;;;4.07;3.77;;;;;;;7.21;100.00;100455.41;5021481;28;20201;-75
2022/09/23 05:54:20;;;;;;;4.00;3.70;;;;;;;7.34;100.00;100457.19;5025987;28;20234;-75
2022/09/23 05:56:45;;;;;;;4.27;3.97;;;;;;;7.47;100.00;100458.16;5021396;28;20200;-76
2022/09/23 05:59:11;;;;;;;4.27;3.97;;;;;;;7.62;100.00;100447.97;5029414;28;20235;-76
2022/09/23 06:01:37;;;;;;;4.07;3.70;;;;;;;7.78;100.00;100451.47;5031773;28;20190;-75
2022/09/23 06:04:05;;;;;;;4.63;4.17;;;;;;;7.90;100.00;100458.41;5023138;28;20190;-74
2022/09/23 06:06:38;;;;;;;5.20;4.70;;;;;;;8.01;100.00;100457.56;5015310;28;20214;-76
2022/09/23 06:09:05;;;;;;;8.33;5.10;;;;;;;8.14;100.00;100454.19;5018985;28;20180;-76
2022/09/23 06:11:32;;;;;;;5.23;4.77;;;;;;;8.31;100.00;100449.09;5022758;28;20188;-76
2022/09/23 06:14:02;;;;;;;5.17;4.70;;;;;;;8.49;100.00;100445.75;5022802;28;20219;-75
2022/09/23 06:16:33;;;;;;;5.30;4.40;;;;;;;8.67;100.00;100451.78;5018293;28;20236;-75
2022/09/23 06:19:03;;;;;;;4.73;4.37;;;;;;;8.75;100.00;100447.50;5025436;28;20191;-77
2022/09/23 06:21:29;;;;;;;5.13;4.63;;;;;;;8.83;100.00;100439.75;5033301;28;20178;-76
2022/09/23 06:23:57;;;;;;;4.50;4.10;;;;;;;8.91;100.00;100447.50;5039858;28;20179;-76
2022/09/23 06:26:23;;;;;;;10.60;5.47;;;;;;;8.99;100.00;100446.66;5042764;28;20218;-76
2022/09/23 06:28:49;;;;;;;5.17;4.43;;;;;;;9.06;100.00;100447.50;5032697;28;20604;-76
2022/09/23 06:31:15;;;;;;;7.90;4.80;;;;;;;9.13;100.00;100441.50;5017412;28;20527;-75
2022/09/23 06:33:42;;;;;;;6.57;5.13;;;;;;;9.23;100.00;100441.47;5014639;28;20199;-75
2022/09/23 06:36:09;;;;;;;7.47;5.50;;;;;;;9.32;100.00;100441.44;5023040;28;20651;-77
2022/09/23 06:38:38;;;;;;;6.53;5.17;;;;;;;9.40;100.00;100438.88;5026910;28;20193;-77
2022/09/23 06:41:03;;;;;;;6.77;5.53;;;;;;;9.43;100.00;100438.88;5025289;28;21862;-75
2022/09/23 06:43:29;;;;;;;6.43;5.83;;;;;;;9.44;100.00;100440.59;5018251;28;20184;-74
2022/09/23 06:45:59;;;;;;;6.33;5.73;;;;;;;9.46;100.00;100436.28;5016893;28;20203;-76
2022/09/23 06:48:26;;;;;;;6.57;5.90;;;;;;;9.50;100.00;100437.13;5024763;28;20191;-74
2022/09/23 06:50:52;;;;;;;7.10;5.23;;;;;;;9.55;100.00;100441.41;5026743;28;20227;-75
2022/09/23 06:53:19;;;;;;;6.27;5.67;;;;;;;9.61;100.00;100440.53;5019477;28;20238;-75
2022/09/23 06:55:45;;;;;;;7.10;6.43;;;;;;;9.66;100.00;100440.56;5025869;28;20206;-75
2022/09/23 06:58:10;;;;;;;6.60;6.00;;;;;;;9.71;100.00;100443.97;5027821;28;20180;-75
2022/09/23 07:00:36;;;;;;;7.17;6.00;;;;;;;9.77;100.00;100447.38;5028721;28;20190;-74
2022/09/23 07:03:08;;;;;;;6.17;5.60;;;;;;;9.87;100.00;100455.13;5022248;28;20194;-75
2022/09/23 07:05:37;;;;;;;6.20;5.37;;;;;;;9.95;100.00;100457.69;5031638;28;20618;-76
2022/09/23 07:08:06;;;;;;;5.53;4.80;;;;;;;10.05;100.00;100451.59;5032493;28;20191;-75
2022/09/23 07:10:31;;;;;;;6.00;5.10;;;;;;;10.13;100.00;100457.63;5026260;28;20864;-76
2022/09/23 07:13:00;;;;;;;5.17;4.67;;;;;;;10.22;100.00;100456.69;5027405;28;20190;-76
2022/09/23 07:15:26;;;;;;;4.77;4.37;;;;;;;10.30;100.00;100464.41;5025549;28;20191;-76
2022/09/23 07:17:51;;;;;;;5.33;4.43;;;;;;;10.39;100.00;100464.41;5027380;28;20191;-75
2022/09/23 07:20:17;;;;;;;4.67;4.03;;;;;;;10.48;100.00;100460.91;5027376;28;20258;-75
2022/09/23 07:22:43;;;;;;;5.13;4.60;;;;;;;10.57;100.00;100458.25;5028801;28;20187;-75
2022/09/23 07:25:10;;;;;;;4.90;4.50;;;;;;;10.65;100.00;100460.81;5028835;28;20191;-74
2022/09/23 07:27:35;;;;;;;5.17;4.67;;;;;;;10.73;100.00;100459.03;5022211;28;20647;-75
2022/09/23 07:30:00;;;;;;;4.37;3.80;;;;;;;10.81;100.00;100453.81;5028118;28;20187;-75
2022/09/23 07:32:26;;;;;;;4.97;4.47;;;;;;;10.93;100.00;100461.47;5022084;28;20176;-76
2022/09/23 07:34:52;;;;;;;4.23;3.83;;;;;;;11.06;100.00;100451.88;5029600;28;20198;-75
2022/09/23 07:37:18;;;;;;;4.37;4.07;;;;;;;11.19;100.00;100463.00;5019184;28;20227;-75
2022/09/23 07:39:44;;;;;;;4.10;3.80;;;;;;;11.37;100.00;100468.88;5020791;28;20183;-76
2022/09/23 07:42:11;;;;;;;4.33;3.93;;;;;;;11.55;100.00;100465.25;5015989;28;20242;-76
2022/09/23 07:44:36;;;;;;;3.97;3.67;;;;;;;11.72;100.00;100465.09;5024383;28;20549;-75
2022/09/23 07:47:02;;;;;;;4.37;3.97;;;;;;;11.87;100.00;100472.66;5021157;28;20203;-74
2022/09/23 07:49:28;;;;;;;4.60;3.70;;;;;;;12.01;100.00;100471.72;5026971;28;20199;-75
2022/09/23 07:51:53;;;;;;;4.17;3.87;;;;;;;12.14;100.00;100478.47;5022998;28;20254;-75
2022/09/23 07:54:20;;;;;;;4.47;4.07;;;;;;;12.28;100.00;100480.00;5022978;28;20304;-75
2022/09/23 07:56:46;;;;;;;3.90;3.60;;;;;;;12.41;100.00;100485.88;5025536;28;20210;-75
2022/09/23 07:59:16;;;;;;;3.70;3.40;;;;;;;12.51;100.00;100484.91;5024426;28;20218;-76
2022/09/23 08:01:47;;;;;;;4.93;3.70;;;;;;;12.55;100.00;100481.38;5023301;28;20314;-76
2022/09/23 08:04:12;;;;;;;4.53;4.13;;;;;;;12.57;100.00;100476.16;5027242;28;20256;-76
2022/09/23 08:06:42;;;;;;;4.37;3.97;;;;;;;12.58;100.00;100485.66;5030023;28;20684;-75
2022/09/23 08:09:08;;;;;;;4.53;4.20;;;;;;;12.62;100.00;100476.97;5026834;28;20631;-75
2022/09/23 08:11:35;;;;;;;4.20;3.70;;;;;;;12.69;100.00;100475.97;5039557;28;20173;-76
2022/09/23 08:14:00;;;;;;;4.23;3.93;;;;;;;12.81;100.00;100477.53;5044035;28;20220;-78
2022/09/23 08:16:25;;;;;;;4.57;4.17;;;;;;;12.88;100.00;100481.75;5028264;28;20252;-76
2022/09/23 08:18:51;;;;;;;4.30;3.90;;;;;;;12.96;100.00;100479.91;5028953;28;20183;-77
2022/09/23 08:21:20;;;;;;;4.17;3.87;;;;;;;13.08;100.00;100485.78;5028362;28;20269;-76
2022/09/23 08:23:46;;;;;;;4.27;3.90;;;;;;;13.18;100.00;100483.91;5023144;28;20185;-76
2022/09/23 08:26:11;;;;;;;4.77;4.33;;;;;;;13.32;100.00;100484.53;5023290;28;20213;-76
2022/09/23 08:28:37;;;;;;;4.60;4.23;;;;;;;13.49;100.00;100473.84;5015277;28;20198;-76
2022/09/23 08:31:02;;;;;;;4.50;4.20;;;;;;;13.65;100.00;100478.75;5028711;28;20242;-75
2022/09/23 08:33:29;;;;;;;4.50;4.17;;;;;;;13.76;100.00;100475.97;5039339;28;20266;-76
2022/09/23 08:35:59;;;;;;;4.10;3.73;;;;;;;13.86;100.00;100477.50;5032151;28;20670;-76
2022/09/23 08:38:25;;;;;;;4.00;3.70;;;;;;;13.95;100.00;100472.13;5023778;28;20865;-76
2022/09/23 08:40:54;;;;;;;4.27;3.90;;;;;;;14.09;100.00;100478.78;5022541;28;20235;-75
2022/09/23 08:43:26;;;;;;;4.77;3.80;;;;;;;14.19;100.00;100467.28;5027418;28;20184;-75
2022/09/23 08:45:56;;;;;;;4.10;3.80;;;;;;;14.27;100.00;100477.53;5023211;28;20204;-75
2022/09/23 08:48:35;;;;;;;4.17;3.87;;;;;;;14.35;100.00;100470.44;5019046;28;20250;-75
2022/09/23 08:51:05;;;;;;;4.50;4.10;;;;;;;14.45;100.00;100464.13;5025838;28;20286;-76
2022/09/23 08:53:36;;;;;;;4.70;4.30;;;;;;;14.47;100.00;100467.56;5029382;28;20568;-76
2022/09/23 08:56:22;;;;;;;4.40;4.00;;;;;;;14.53;100.00;100460.47;5025360;28;20239;-75
2022/09/23 08:59:09;;;;;;;4.37;3.90;;;;;;;14.62;99.76;100457.69;5026734;28;20195;-74
2022/09/23 09:01:45;;;;;;;3.67;3.37;;;;;;;14.66;98.97;100466.28;5019982;28;20191;-76
2022/09/23 09:04:19;;;;;;;4.13;3.80;;;;;;;14.74;98.39;100456.59;5012609;28;20194;-77
2022/09/23 09:06:49;;;;;;;4.57;4.20;;;;;;;14.85;98.52;100457.19;5026223;28;20708;-77
2022/09/23 09:09:42;;;;;;;4.10;3.70;;;;;;;14.96;97.88;100451.72;5019811;28;20194;-75
2022/09/23 09:12:21;;;;;;;4.17;3.87;;;;;;;15.06;97.92;100450.59;5021724;28;20253;-75
2022/09/23 09:15:21;;;;;;;4.87;3.63;;;;;;;15.13;97.31;100453.00;5022395;28;20187;-74
2022/09/23 09:18:10;;;;;;;4.57;3.70;;;;;;;15.13;96.91;100453.88;5024127;28;20407;-77
2022/09/23 09:20:55;;;;;;;4.63;3.37;;;;;;;15.11;96.67;100447.00;5016809;28;20195;-75
2022/09/23 09:23:25;;;;;;;3.80;3.50;;;;;;;15.13;95.95;100453.88;5022987;28;20188;-75
2022/09/23 09:25:53;;;;;;;5.00;3.60;;;;;;;15.22;95.41;100447.59;5028617;28;20214;-75
2022/09/23 09:28:29;;;;;;;4.87;4.40;;;;;;;15.34;92.89;100442.06;5030901;28;20292;-75
2022/09/23 09:31:15;;;;;;;4.50;4.10;;;;;;;15.32;92.69;100443.84;5031979;28;20197;-75
2022/09/23 09:33:56;;;;;;;4.47;4.07;;;;;;;15.35;93.30;100435.94;5029956;28;20203;-76
2022/09/23 09:36:43;;;;;;;4.00;3.70;;;;;;;15.46;93.46;100440.88;5027218;28;20207;-75
2022/09/23 09:39:15;;;;;;;4.00;3.70;;;;;;;15.53;93.05;100436.34;5017337;28;20274;-75
2022/09/23 09:41:46;;;;;;;4.30;3.90;;;;;;;15.62;93.07;100435.25;5023226;28;20199;-75
2022/09/23 09:44:36;;;;;;;3.97;3.57;;;;;;;15.73;92.91;100429.72;5022064;28;20194;-77
2022/09/23 09:47:06;;;;;;;3.67;3.33;;;;;;;15.79;92.51;100419.97;5028858;28;20203;-75
2022/09/23 09:50:00;;;;;;;6.70;4.47;;;;;;;15.82;90.18;100427.69;5022736;28;20200;-74
2022/09/23 09:52:28;;;;;;;4.50;3.90;;;;;;;15.89;90.63;100425.78;5018990;28;20682;-75
2022/09/23 09:55:00;;;;;;;3.80;3.50;;;;;;;15.96;90.67;100421.25;5022519;28;20199;-75
2022/09/23 09:57:35;;;;;;;3.53;3.10;;;;;;;16.05;90.89;100412.28;5027597;28;20191;-75
2022/09/23 10:00:18;;;;;;;4.43;3.20;;;;;;;16.21;90.35;100405.72;5029480;28;20322;-74
2022/09/23 10:02:44;;;;;;;3.13;2.83;;;;;;;16.29;90.06;100403.72;5028697;28;20190;-75
2022/09/23 10:05:27;;;;;;;2.60;2.40;;;;;;;16.41;89.66;100401.63;5030201;28;20193;-75
2022/09/23 10:07:53;;;;;;;3.20;2.97;;;;;;;16.51;89.30;100404.81;5024853;28;20211;-74
2022/09/23 10:10:23;;;;;;;2.80;2.60;;;;;;;16.59;89.14;100405.41;5026440;28;20632;-77
2022/09/23 10:12:51;;;;;;;3.63;2.77;;;;;;;16.72;89.22;100405.88;5028935;28;20215;-74
2022/09/23 10:15:33;;;;;;;3.13;2.40;;;;;;;16.80;88.34;100403.84;5031537;28;20186;-74
2022/09/23 10:18:00;;;;;;;3.37;3.07;;;;;;;16.89;87.09;100394.84;5026291;28;20190;-75
2022/09/23 10:20:34;;;;;;;3.67;2.80;;;;;;;16.92;86.93;100395.63;5025280;28;20182;-75
2022/09/23 10:23:05;;;;;;;3.00;2.30;;;;;;;16.96;86.90;100388.56;5018789;28;20268;-76
2022/09/23 10:25:33;;;;;;;2.40;2.20;;;;;;;17.02;87.24;100384.88;5020799;28;20210;-75
2022/09/23 10:28:38;;;;;;;2.20;2.00;;;;;;;17.05;87.08;100384.78;5029900;28;20196;-76
2022/09/23 10:31:11;;;;;;;3.10;2.40;;;;;;;17.14;86.60;100374.00;5025820;28;20191;-75
2022/09/23 10:33:47;;;;;;;2.73;2.53;;;;;;;17.19;86.81;100376.44;5018456;28;20682;-75
2022/09/23 10:36:14;;;;;;;2.87;2.50;;;;;;;17.25;87.17;100364.91;5027091;28;20295;-75
2022/09/23 10:38:39;;;;;;;4.37;2.70;;;;;;;17.27;87.33;100353.50;5023078;28;20681;-76
2022/09/23 10:47:03;;;;;;;3.07;2.67;;;;;;;17.37;85.70;100347.03;5023001;28;20739;-75
2022/09/23 10:50:00;;;;;;;2.90;2.60;;;;;;;17.45;85.65;100351.97;5031148;28;20502;-75
2022/09/23 10:52:31;;;;;;;3.43;2.50;;;;;;;17.49;85.16;100348.34;5020237;28;20426;-75
2022/09/23 10:55:31;;;;;;;2.33;2.13;;;;;;;17.56;84.45;100348.09;5014680;28;20654;-74
2022/09/23 10:58:03;;;;;;;2.63;2.43;;;;;;;17.59;84.14;100348.00;4970325;28;20289;-74
2022/09/23 11:00:28;;;;;;;3.37;3.07;;;;;;;17.70;84.09;100345.81;5013306;28;20195;-75
2022/09/23 11:03:39;;;;;;;2.83;2.50;;;;;;;17.77;84.31;100347.31;5028118;28;20187;-75
2022/09/23 11:06:35;;;;;;;2.77;2.57;;;;;;;17.89;84.58;100347.75;5002020;28;20212;-77
2022/09/23 11:09:09;;;;;;;2.80;2.60;;;;;;;17.94;84.45;100340.56;5027535;28;20191;-76
2022/09/23 11:11:38;;;;;;;2.80;2.60;;;;;;;18.02;84.15;100343.75;5026287;28;20592;-75
2022/09/23 11:14:47;;;;;;;3.10;2.80;;;;;;;18.11;84.06;100342.53;5021437;28;20620;-75
2022/09/23 11:17:33;;;;;;;3.23;2.70;;;;;;;18.15;83.82;100349.38;5024400;28;20273;-75
2022/09/23 11:20:30;;;;;;;3.00;2.80;;;;;;;18.20;83.77;100343.94;5016265;28;20245;-75
2022/09/23 11:23:22;;;;;;;3.43;3.07;;;;;;;18.20;83.23;100346.56;5021951;28;20987;-75
2022/09/23 11:26:26;;;;;;;3.00;2.80;;;;;;;18.20;82.85;100342.19;5019199;28;20218;-75
2022/09/23 11:29:12;;;;;;;2.50;2.30;;;;;;;18.25;82.96;100334.16;4993786;28;20457;-75
2022/09/23 11:32:04;;;;;;;3.03;2.70;;;;;;;18.32;83.09;100324.28;5024490;28;20190;-76
2022/09/23 11:34:57;;;;;;;3.07;2.80;;;;;;;18.37;82.23;100324.94;5020078;28;20211;-76
2022/09/23 11:37:28;;;;;;;2.70;2.50;;;;;;;18.45;82.69;100324.63;5025453;28;20540;-75
2022/09/23 11:40:19;;;;;;;3.53;3.17;;;;;;;18.51;82.45;100322.63;5024585;28;20207;-76
2022/09/23 11:43:00;;;;;;;3.63;3.20;;;;;;;18.58;82.20;100324.03;5028458;28;20203;-76
2022/09/23 11:45:47;;;;;;;3.50;3.20;;;;;;;18.61;81.80;100314.34;5023737;28;20222;-75
2022/09/23 11:48:26;;;;;;;3.50;2.83;;;;;;;18.56;80.45;100311.94;5019709;28;20176;-75
2022/09/23 11:51:00;;;;;;;2.43;2.33;;;;;;;18.57;81.09;100311.00;5029258;28;20218;-76
2022/09/23 11:53:34;;;;;;;2.60;2.40;;;;;;;18.61;81.12;100306.50;5018771;28;20202;-75